Time;durP1;ratioP1;P1;durP2;ratioP2;P2;SDS_P1;SDS_P2;PMS_P1;PMS_P2;Temp;Humidity;BMP_temperature;BMP_pressure;BME280_temperature;BME280_humidity;BME280_pressure;Samples;Min_cycle;Max_cycle;Signal;HPM_P1;HPM_P2
2021/05/18 00:02:11;;;;;;;2.73;0.70;;;14.80;99.90;;;;;;5076598;28;20196;-89
2021/05/18 00:04:42;;;;;;;0.60;0.60;;;14.80;99.90;;;;;;5052752;28;20220;-90
2021/05/18 00:07:16;;;;;;;1.33;0.50;;;14.80;99.90;;;;;;5030624;28;20616;-89
2021/05/18 00:12:36;;;;;;;0.63;0.60;;;14.80;99.90;;;;;;5038396;28;20212;-89
2021/05/18 00:15:11;;;;;;;1.33;0.67;;;14.70;99.90;;;;;;5038870;28;20208;-89
2021/05/18 00:17:45;;;;;;;1.23;0.50;;;14.60;99.90;;;;;;5037491;28;20286;-90
2021/05/18 00:20:18;;;;;;;1.57;0.70;;;14.70;99.90;;;;;;5039113;28;20675;-90
2021/05/18 00:22:49;;;;;;;2.33;0.70;;;14.60;99.90;;;;;;5038400;28;20217;-90
2021/05/18 00:25:19;;;;;;;1.00;0.73;;;14.70;99.90;;;;;;5042499;28;20212;-90
2021/05/18 00:27:51;;;;;;;2.77;1.23;;;14.80;99.90;;;;;;5038464;28;20215;-90
2021/05/18 00:30:22;;;;;;;1.60;0.70;;;14.90;99.90;;;;;;5037871;28;20234;-91
2021/05/18 00:32:56;;;;;;;1.23;0.40;;;14.90;99.90;;;;;;5039488;28;20197;-91
2021/05/18 00:35:30;;;;;;;0.80;0.57;;;15.00;99.90;;;;;;5042133;28;20204;-90
2021/05/18 00:38:03;;;;;;;1.57;0.87;;;15.00;99.90;;;;;;5038685;28;20208;-90
2021/05/18 00:40:34;;;;;;;2.73;0.90;;;14.90;99.90;;;;;;5036802;28;20235;-89
2021/05/18 00:43:05;;;;;;;1.30;1.10;;;14.80;99.90;;;;;;5037014;28;20555;-91
2021/05/18 00:45:38;;;;;;;1.80;0.90;;;14.80;99.90;;;;;;5037570;28;20230;-89
2021/05/18 00:48:11;;;;;;;1.13;0.60;;;14.70;99.90;;;;;;5036717;28;20248;-91
2021/05/18 00:50:45;;;;;;;0.97;0.70;;;14.60;99.90;;;;;;5036349;28;20236;-91
2021/05/18 00:53:17;;;;;;;1.70;0.47;;;14.50;99.90;;;;;;5037468;28;20225;-90
2021/05/18 00:55:52;;;;;;;2.47;0.50;;;14.50;99.90;;;;;;5036614;28;20263;-90
2021/05/18 00:58:29;;;;;;;2.50;0.70;;;14.60;99.90;;;;;;5039205;28;20266;-90
2021/05/18 01:01:03;;;;;;;1.43;0.73;;;14.50;99.90;;;;;;5035030;28;20213;-89
2021/05/18 01:03:37;;;;;;;1.30;0.77;;;14.30;99.90;;;;;;5035596;28;20618;-90
2021/05/18 01:06:25;;;;;;;1.23;0.67;;;14.10;99.90;;;;;;5035370;28;20204;-91
2021/05/18 01:08:58;;;;;;;1.00;0.57;;;14.20;99.90;;;;;;5035983;28;20260;-91
2021/05/18 01:11:31;;;;;;;1.47;0.60;;;14.30;99.90;;;;;;5037671;28;20697;-91
2021/05/18 01:14:06;;;;;;;1.67;0.87;;;14.20;99.90;;;;;;5045316;28;20235;-90
2021/05/18 01:16:41;;;;;;;1.63;0.70;;;14.20;99.90;;;;;;5031748;28;20208;-90
2021/05/18 01:19:15;;;;;;;1.67;1.20;;;14.20;99.90;;;;;;5042248;28;20221;-89
2021/05/18 01:21:47;;;;;;;3.23;1.00;;;14.00;99.90;;;;;;5037947;28;20235;-89
2021/05/18 01:24:19;;;;;;;3.87;0.90;;;14.00;99.90;;;;;;5058858;28;20221;-90
2021/05/18 01:26:50;;;;;;;0.53;0.50;;;13.90;99.90;;;;;;5058478;28;20211;-91
2021/05/18 01:29:23;;;;;;;1.87;0.70;;;13.50;99.90;;;;;;5058175;28;20228;-90
2021/05/18 01:31:55;;;;;;;1.60;0.90;;;13.70;99.90;;;;;;5057377;28;20209;-91
2021/05/18 01:34:26;;;;;;;1.63;0.70;;;13.80;99.90;;;;;;5039640;28;20208;-91
2021/05/18 01:36:58;;;;;;;1.13;0.70;;;13.60;99.90;;;;;;5038723;28;20301;-91
2021/05/18 01:45:10;;;;;;;1.47;0.70;;;13.80;99.90;;;;;;5036706;28;20232;-91
2021/05/18 01:47:46;;;;;;;0.70;0.63;;;13.70;99.90;;;;;;5037322;28;20287;-91
2021/05/18 01:50:19;;;;;;;1.13;0.77;;;13.60;99.90;;;;;;5035349;28;20298;-90
2021/05/18 01:52:52;;;;;;;1.73;0.50;;;13.30;99.90;;;;;;5019620;28;20296;-90
2021/05/18 01:55:29;;;;;;;1.17;0.60;;;13.00;99.90;;;;;;5037148;28;20213;-90
2021/05/18 01:58:00;;;;;;;1.63;0.70;;;12.80;99.90;;;;;;5037778;28;20274;-90
2021/05/18 02:00:32;;;;;;;0.93;0.70;;;12.60;99.90;;;;;;5039594;28;20294;-90
2021/05/18 02:03:04;;;;;;;1.83;0.70;;;12.60;99.90;;;;;;5021473;28;20267;-90
2021/05/18 02:05:37;;;;;;;2.13;0.70;;;12.60;99.90;;;;;;5037981;28;20200;-90
2021/05/18 02:08:13;;;;;;;1.37;0.60;;;12.40;99.90;;;;;;5038806;28;20247;-90
2021/05/18 02:10:44;;;;;;;0.63;0.50;;;12.20;99.90;;;;;;5038371;28;20243;-89
2021/05/18 02:13:16;;;;;;;1.83;0.80;;;12.10;99.90;;;;;;5041106;28;20244;-89
2021/05/18 02:15:51;;;;;;;0.67;0.67;;;11.90;99.90;;;;;;5053694;28;20208;-92
2021/05/18 02:21:23;;;;;;;2.33;0.90;;;11.80;99.90;;;;;;5059384;28;20208;-89
2021/05/18 02:26:43;;;;;;;4.33;1.37;;;11.50;99.90;;;;;;5047030;28;20562;-89
2021/05/18 02:29:14;;;;;;;1.50;0.80;;;11.50;99.90;;;;;;5042047;28;20233;-89
2021/05/18 02:31:45;;;;;;;0.60;0.60;;;11.50;99.90;;;;;;5035210;28;20646;-90
2021/05/18 02:34:16;;;;;;;0.83;0.80;;;11.30;99.90;;;;;;5035708;28;20291;-90
2021/05/18 02:36:46;;;;;;;2.07;0.80;;;11.20;99.90;;;;;;5036852;28;20205;-90
2021/05/18 02:39:21;;;;;;;1.40;0.70;;;11.20;99.90;;;;;;5036689;28;20224;-89
2021/05/18 02:41:56;;;;;;;2.57;0.90;;;11.20;99.90;;;;;;5016933;28;20233;-90
2021/05/18 02:44:32;;;;;;;1.67;0.80;;;11.20;99.90;;;;;;5001090;28;20251;-90
2021/05/18 02:49:51;;;;;;;0.60;0.60;;;11.20;99.90;;;;;;5034698;28;20631;-90
2021/05/18 02:52:22;;;;;;;1.50;0.70;;;11.10;99.90;;;;;;5048370;28;20287;-90
2021/05/18 02:54:56;;;;;;;1.13;0.70;;;11.10;99.90;;;;;;5047704;28;20626;-90
2021/05/18 02:57:34;;;;;;;1.10;0.60;;;11.10;99.90;;;;;;5038901;28;20240;-90
2021/05/18 03:00:08;;;;;;;2.67;0.87;;;11.10;99.90;;;;;;5034553;28;20208;-90
2021/05/18 03:02:39;;;;;;;0.40;0.40;;;11.20;99.90;;;;;;5038679;28;20661;-90
2021/05/18 03:05:12;;;;;;;1.13;0.80;;;11.20;99.90;;;;;;5038025;28;20240;-89
2021/05/18 03:07:43;;;;;;;0.87;0.60;;;11.20;99.90;;;;;;5035883;28;20213;-87
2021/05/18 03:10:18;;;;;;;0.60;0.47;;;11.20;99.90;;;;;;5033893;28;20282;-86
2021/05/18 03:12:49;;;;;;;1.57;0.67;;;11.30;99.90;;;;;;5034347;28;20273;-88
2021/05/18 03:15:21;;;;;;;1.73;0.87;;;11.30;99.90;;;;;;5033252;28;20220;-89
2021/05/18 03:17:55;;;;;;;1.27;0.77;;;11.30;99.90;;;;;;5034321;28;20220;-88
2021/05/18 03:20:27;;;;;;;1.07;0.70;;;11.30;99.90;;;;;;5033049;28;20580;-88
2021/05/18 03:22:58;;;;;;;1.53;0.87;;;11.40;99.90;;;;;;5034587;28;20236;-89
2021/05/18 03:25:31;;;;;;;1.67;0.80;;;11.50;99.90;;;;;;5033527;28;20213;-88
2021/05/18 03:28:01;;;;;;;0.70;0.70;;;11.50;99.90;;;;;;5033939;28;20289;-88
2021/05/18 03:30:47;;;;;;;1.30;0.80;;;11.50;99.90;;;;;;5038343;28;20312;-87
2021/05/18 03:36:07;;;;;;;1.30;0.47;;;11.30;99.90;;;;;;5040038;28;20216;-88
2021/05/18 03:38:42;;;;;;;1.63;0.50;;;11.30;99.90;;;;;;5041349;28;20254;-89
2021/05/18 03:41:19;;;;;;;0.50;0.50;;;11.20;99.90;;;;;;5039759;28;20235;-90
2021/05/18 03:43:56;;;;;;;0.60;0.40;;;11.30;99.90;;;;;;5063332;28;20262;-89
2021/05/18 03:52:23;;;;;;;0.93;0.40;;;11.10;99.90;;;;;;5044667;28;20223;-89
2021/05/18 03:55:04;;;;;;;1.97;0.50;;;11.10;99.90;;;;;;5059792;28;20282;-89
2021/05/18 04:03:18;;;;;;;0.80;0.50;;;11.20;99.90;;;;;;5064014;28;20208;-88
2021/05/18 04:17:06;;;;;;;0.97;0.50;;;11.20;99.90;;;;;;5056892;28;20267;-88
2021/05/18 04:19:39;;;;;;;0.93;0.40;;;11.20;99.90;;;;;;5056384;28;20204;-88
2021/05/18 04:22:25;;;;;;;0.50;0.33;;;11.10;99.90;;;;;;5055935;28;20295;-88
2021/05/18 04:39:06;;;;;;;1.70;0.60;;;11.20;99.90;;;;;;5054172;28;20268;-88
2021/05/18 04:42:14;;;;;;;1.60;0.50;;;11.20;99.90;;;;;;5052547;28;20197;-88
2021/05/18 04:50:43;;;;;;;1.63;0.80;;;11.10;99.90;;;;;;5038479;28;20217;-88
2021/05/18 04:53:19;;;;;;;0.70;0.43;;;11.20;99.90;;;;;;5017275;28;20230;-88
2021/05/18 05:01:37;;;;;;;2.57;0.80;;;10.90;99.90;;;;;;5017496;28;20217;-88
2021/05/18 05:04:19;;;;;;;1.37;1.03;;;10.90;99.90;;;;;;5018228;28;20236;-88
2021/05/18 05:06:54;;;;;;;1.37;1.00;;;10.80;99.90;;;;;;5018603;28;20236;-88
2021/05/18 05:09:27;;;;;;;2.27;1.17;;;10.80;99.90;;;;;;5015661;28;20224;-89
2021/05/18 05:14:54;;;;;;;2.00;1.20;;;10.80;99.90;;;;;;4992636;28;20282;-88
2021/05/18 05:17:25;;;;;;;2.30;1.30;;;10.80;99.90;;;;;;5016990;28;20213;-88
2021/05/18 05:19:58;;;;;;;1.67;1.07;;;10.80;99.90;;;;;;5015683;28;20240;-88
2021/05/18 05:22:30;;;;;;;1.57;1.10;;;10.70;99.90;;;;;;5015616;28;20217;-88
2021/05/18 05:25:00;;;;;;;2.23;1.53;;;10.70;99.90;;;;;;5016265;28;20684;-87
2021/05/18 05:27:32;;;;;;;3.03;1.13;;;10.70;99.90;;;;;;5015694;28;20708;-88
2021/05/18 05:30:03;;;;;;;1.30;0.90;;;10.70;99.90;;;;;;5015591;28;20237;-89
2021/05/18 05:32:34;;;;;;;4.63;1.20;;;10.70;99.90;;;;;;5017827;28;20228;-88
2021/05/18 05:35:08;;;;;;;2.77;1.50;;;10.70;99.90;;;;;;4999305;28;20257;-89
2021/05/18 05:37:40;;;;;;;1.50;1.23;;;10.70;99.90;;;;;;5019245;28;20276;-89
2021/05/18 05:40:12;;;;;;;2.00;1.10;;;10.70;99.90;;;;;;5018401;28;20225;-88
2021/05/18 05:42:43;;;;;;;2.30;1.33;;;10.70;99.90;;;;;;5037075;28;20205;-89
2021/05/18 05:45:15;;;;;;;2.30;1.07;;;10.80;99.90;;;;;;5037475;28;20275;-89
2021/05/18 05:47:46;;;;;;;2.00;1.00;;;10.70;99.90;;;;;;5035572;28;20212;-89
2021/05/18 05:50:18;;;;;;;4.67;1.33;;;10.70;99.90;;;;;;5030970;28;20319;-89
2021/05/18 05:52:49;;;;;;;1.77;1.23;;;10.70;99.90;;;;;;5015691;28;20201;-89
2021/05/18 05:55:20;;;;;;;1.83;0.80;;;10.70;99.90;;;;;;5015307;28;20205;-89
2021/05/18 05:57:53;;;;;;;3.80;1.20;;;10.70;99.90;;;;;;5014956;28;20284;-89
2021/05/18 06:00:25;;;;;;;2.37;1.13;;;10.80;99.90;;;;;;5014526;28;20297;-88
2021/05/18 06:02:56;;;;;;;2.43;1.03;;;10.70;99.90;;;;;;5015101;28;20209;-88
2021/05/18 06:05:29;;;;;;;2.60;1.10;;;10.70;99.90;;;;;;5014795;28;20271;-88
2021/05/18 06:07:59;;;;;;;1.90;0.90;;;10.60;99.90;;;;;;5015474;28;20236;-88
2021/05/18 06:10:34;;;;;;;1.47;0.70;;;10.50;99.90;;;;;;5014231;28;20244;-88
2021/05/18 06:49:50;;;;;;;1.60;0.90;;;9.90;99.90;;;;;;5053196;28;20217;-88
2021/05/18 06:52:20;;;;;;;1.87;0.70;;;9.80;99.90;;;;;;5052996;28;20265;-87
2021/05/18 06:54:53;;;;;;;7.37;1.00;;;9.80;99.90;;;;;;5045276;28;20223;-88
2021/05/18 06:57:42;;;;;;;3.53;0.90;;;9.80;99.90;;;;;;5039590;28;20219;-88
2021/05/18 07:00:17;;;;;;;1.23;0.77;;;9.80;99.90;;;;;;5036774;28;20222;-88
2021/05/18 07:02:50;;;;;;;9.00;1.13;;;9.80;99.90;;;;;;5037464;28;20321;-87
2021/05/18 07:05:29;;;;;;;2.70;0.80;;;9.70;99.90;;;;;;5036719;28;20203;-88
2021/05/18 07:08:09;;;;;;;2.30;0.90;;;9.70;99.90;;;;;;5038088;28;20233;-87
2021/05/18 07:10:43;;;;;;;1.87;0.80;;;9.80;99.90;;;;;;5038146;28;20228;-87
2021/05/18 07:13:15;;;;;;;3.43;1.07;;;9.60;99.90;;;;;;5038165;28;20208;-88
2021/05/18 07:15:46;;;;;;;4.57;1.00;;;9.70;99.90;;;;;;5038784;28;20209;-88
2021/05/18 07:18:17;;;;;;;8.37;1.17;;;9.70;99.90;;;;;;5038478;28;20632;-88
2021/05/18 07:20:48;;;;;;;2.83;1.07;;;9.70;99.90;;;;;;5040436;28;20246;-86
2021/05/18 07:23:23;;;;;;;6.07;1.17;;;9.70;99.90;;;;;;5037610;28;20236;-86
2021/05/18 07:25:55;;;;;;;4.33;1.17;;;9.60;99.90;;;;;;5038019;28;20289;-86
2021/05/18 07:28:30;;;;;;;3.67;0.83;;;9.60;99.90;;;;;;5038813;28;20213;-87
2021/05/18 07:31:02;;;;;;;5.60;1.13;;;9.60;99.90;;;;;;5046594;28;20234;-88
2021/05/18 07:33:36;;;;;;;4.43;1.43;;;9.60;99.90;;;;;;5057004;28;20199;-88
2021/05/18 07:36:09;;;;;;;4.40;1.13;;;9.60;99.90;;;;;;5029123;28;20207;-88
2021/05/18 07:38:41;;;;;;;2.50;1.07;;;9.70;99.90;;;;;;5045370;28;20207;-88
2021/05/18 07:41:14;;;;;;;8.43;1.50;;;9.70;99.90;;;;;;5045544;28;20211;-88
2021/05/18 07:43:45;;;;;;;3.03;0.83;;;9.80;99.90;;;;;;5046914;28;20219;-88
2021/05/18 07:46:18;;;;;;;4.77;1.20;;;9.70;99.90;;;;;;5045868;28;20200;-88
2021/05/18 07:51:48;;;;;;;4.17;1.27;;;9.70;99.90;;;;;;5050219;28;20265;-89
2021/05/18 07:59:58;;;;;;;4.23;1.03;;;9.50;99.90;;;;;;5068343;28;20230;-88
2021/05/18 08:05:16;;;;;;;3.07;1.00;;;9.50;99.90;;;;;;5068622;28;20199;-88
2021/05/18 08:05:26;;;;;;;3.30;1.00;;;9.50;99.90;;;;;;5059374;28;20222;-86
2021/05/18 08:07:57;;;;;;;4.17;0.90;;;9.40;99.90;;;;;;5058650;28;20191;-87
2021/05/18 08:10:42;;;;;;;4.53;1.13;;;9.40;99.90;;;;;;5057802;28;20218;-86
2021/05/18 08:13:17;;;;;;;3.77;1.00;;;9.40;99.90;;;;;;5058083;28;20188;-88
2021/05/18 08:16:27;;;;;;;3.47;1.00;;;9.40;99.90;;;;;;5057054;28;20218;-87
2021/05/18 08:22:02;;;;;;;3.57;1.10;;;9.30;99.90;;;;;;5052170;28;20209;-88
2021/05/18 09:34:27;;;;;;;2.00;0.70;;;9.00;99.90;;;;;;5036539;28;20300;-88
2021/05/18 10:36:09;;;;;;;3.37;1.20;;;8.40;99.90;;;;;;5118827;27;20622;-89
2021/05/18 10:38:43;;;;;;;4.60;1.20;;;8.30;99.90;;;;;;5132700;28;20254;-89
2021/05/18 10:41:17;;;;;;;2.77;1.10;;;8.30;99.90;;;;;;5131302;28;20283;-90
2021/05/18 10:43:58;;;;;;;2.50;1.17;;;8.30;99.90;;;;;;5132108;27;20217;-90
2021/05/18 10:46:32;;;;;;;3.97;1.00;;;8.30;99.90;;;;;;5130891;28;20295;-89
2021/05/18 10:49:07;;;;;;;4.00;1.27;;;8.20;99.90;;;;;;5131466;27;20210;-90
2021/05/18 10:51:52;;;;;;;3.10;0.93;;;8.20;99.90;;;;;;5131438;28;20252;-90
2021/05/18 10:54:31;;;;;;;5.00;1.10;;;8.20;99.90;;;;;;5131603;28;20209;-89
2021/05/18 10:57:15;;;;;;;6.50;1.13;;;8.20;99.90;;;;;;5128692;27;20217;-90
2021/05/18 10:59:55;;;;;;;2.73;1.23;;;8.10;99.90;;;;;;5131804;27;20206;-88
2021/05/18 11:02:30;;;;;;;6.90;1.73;;;8.10;99.90;;;;;;5138697;27;20252;-89
2021/05/18 11:05:04;;;;;;;2.67;1.00;;;8.00;99.90;;;;;;5138465;27;20182;-89
2021/05/18 11:07:38;;;;;;;1.53;0.93;;;8.10;99.90;;;;;;5138254;27;20205;-90
2021/05/18 11:10:13;;;;;;;7.83;1.30;;;8.10;99.90;;;;;;5137239;27;20236;-90
2021/05/18 11:12:45;;;;;;;3.53;1.20;;;8.00;99.90;;;;;;5138302;27;20209;-89
2021/05/18 11:15:18;;;;;;;3.63;1.30;;;8.00;99.90;;;;;;5138709;27;20186;-89
2021/05/18 11:17:50;;;;;;;2.13;0.90;;;8.00;99.90;;;;;;5138295;27;20225;-89
2021/05/18 11:20:25;;;;;;;2.70;1.10;;;8.00;99.90;;;;;;5138881;27;20246;-89
2021/05/18 11:25:52;;;;;;;3.73;1.23;;;8.00;99.90;;;;;;5158673;27;20210;-90
2021/05/18 11:28:25;;;;;;;4.40;1.13;;;8.00;99.90;;;;;;5148241;27;20261;-90
2021/05/18 11:30:57;;;;;;;3.77;1.10;;;8.00;99.90;;;;;;5138664;27;20260;-90
2021/05/18 11:33:33;;;;;;;4.00;1.10;;;8.00;99.90;;;;;;5139361;27;20673;-90
2021/05/18 11:36:09;;;;;;;2.93;1.20;;;8.00;99.90;;;;;;5134872;27;20198;-88
2021/05/18 11:38:49;;;;;;;5.77;1.40;;;7.90;99.90;;;;;;5138871;27;20675;-89
2021/05/18 11:41:21;;;;;;;4.20;1.20;;;7.90;99.90;;;;;;5137725;27;20563;-90
2021/05/18 11:43:54;;;;;;;4.77;1.23;;;8.00;99.90;;;;;;5140718;27;20293;-90
2021/05/18 11:46:27;;;;;;;4.40;1.00;;;8.00;99.90;;;;;;5137275;27;20229;-90
2021/05/18 11:49:01;;;;;;;4.50;1.20;;;8.00;99.90;;;;;;5137962;27;20209;-89
2021/05/18 11:51:42;;;;;;;5.10;1.70;;;8.00;99.90;;;;;;5136796;27;20737;-91
2021/05/18 11:54:39;;;;;;;3.40;1.00;;;7.90;99.90;;;;;;5137456;27;20216;-90
2021/05/18 11:57:09;;;;;;;4.00;0.97;;;8.00;99.90;;;;;;5138477;27;20288;-91
2021/05/18 11:59:40;;;;;;;2.93;0.83;;;7.90;99.90;;;;;;5143461;27;20209;-89
2021/05/18 12:02:11;;;;;;;6.00;1.10;;;8.00;99.90;;;;;;5139333;27;20201;-89
2021/05/18 12:04:42;;;;;;;2.57;1.13;;;7.90;99.90;;;;;;5138416;27;20227;-90
2021/05/18 12:07:13;;;;;;;3.87;1.10;;;7.90;99.90;;;;;;5137255;27;20251;-89
2021/05/18 12:09:47;;;;;;;4.13;1.40;;;7.90;99.90;;;;;;5136878;27;20221;-89
2021/05/18 12:12:18;;;;;;;3.53;1.30;;;7.90;99.90;;;;;;5135572;27;20206;-89
2021/05/18 12:14:51;;;;;;;8.00;2.17;;;7.90;99.90;;;;;;5136495;27;20289;-89
2021/05/18 12:17:26;;;;;;;1.20;1.00;;;7.90;99.90;;;;;;5136583;27;20209;-89
2021/05/18 12:19:57;;;;;;;4.47;1.30;;;7.90;99.90;;;;;;5136750;27;20213;-89
2021/05/18 12:22:31;;;;;;;2.17;1.00;;;7.90;99.90;;;;;;5136074;27;20194;-90
2021/05/18 12:25:03;;;;;;;2.97;1.07;;;7.90;99.90;;;;;;5136523;27;20209;-89
2021/05/18 12:27:45;;;;;;;5.37;1.47;;;7.90;99.90;;;;;;5136938;27;20213;-89
2021/05/18 12:30:17;;;;;;;4.10;1.57;;;7.80;99.90;;;;;;5135395;27;20275;-89
2021/05/18 12:32:49;;;;;;;4.07;1.30;;;7.80;99.90;;;;;;5136291;27;20214;-89
2021/05/18 12:35:22;;;;;;;4.20;1.27;;;7.80;99.90;;;;;;5136556;27;20218;-90
2021/05/18 12:37:55;;;;;;;4.17;1.30;;;7.80;99.90;;;;;;5136462;27;20664;-90
2021/05/18 12:40:36;;;;;;;4.43;1.20;;;7.80;99.90;;;;;;5135152;27;20297;-89
2021/05/18 12:43:11;;;;;;;5.13;0.90;;;7.90;99.90;;;;;;5115484;28;20213;-89
2021/05/18 12:45:43;;;;;;;4.60;1.20;;;7.80;99.90;;;;;;5115764;28;20289;-89
2021/05/18 12:48:15;;;;;;;2.10;1.10;;;7.80;99.90;;;;;;5116130;28;20202;-89
2021/05/18 12:50:49;;;;;;;1.97;0.90;;;7.80;99.90;;;;;;5114268;28;20226;-89
2021/05/18 12:53:27;;;;;;;2.87;0.77;;;7.70;99.90;;;;;;5115597;28;20202;-89
2021/05/18 12:56:01;;;;;;;3.47;0.90;;;7.70;99.90;;;;;;5115974;28;20247;-89
2021/05/18 12:58:32;;;;;;;3.50;0.97;;;7.70;99.90;;;;;;5116117;28;20210;-90
2021/05/18 13:01:08;;;;;;;2.53;0.70;;;7.70;99.90;;;;;;5113898;28;20621;-88
2021/05/18 13:03:39;;;;;;;0.93;0.53;;;7.70;99.90;;;;;;5115479;28;20296;-88
2021/05/18 13:06:10;;;;;;;2.30;0.87;;;7.60;99.90;;;;;;5115155;28;20267;-89
2021/05/18 13:08:41;;;;;;;2.60;1.07;;;7.60;99.90;;;;;;5115693;28;20206;-89
2021/05/18 13:12:10;;;;;;;2.40;0.90;;;7.70;99.90;;;;;;5114245;28;20244;-89
2021/05/18 13:14:07;;;;;;;4.60;0.90;;;7.60;99.90;;;;;;5114918;28;20281;-89
2021/05/18 13:16:38;;;;;;;2.63;0.87;;;7.60;99.90;;;;;;5115213;28;20210;-87
2021/05/18 13:19:11;;;;;;;2.83;1.00;;;7.60;99.90;;;;;;5115275;28;20203;-88
2021/05/18 13:21:47;;;;;;;2.17;0.90;;;7.60;99.90;;;;;;5133341;27;20250;-89
2021/05/18 13:26:25;;;;;;;1.43;0.80;;;7.50;99.90;;;;;;5135190;27;20232;-88
2021/05/18 13:27:19;;;;;;;4.17;1.00;;;7.60;99.90;;;;;;5136089;27;20213;-88
2021/05/18 13:29:50;;;;;;;1.40;0.90;;;7.60;99.90;;;;;;5135672;27;20205;-89
2021/05/18 13:32:21;;;;;;;2.90;1.10;;;7.60;99.90;;;;;;5135440;27;20210;-89
2021/05/18 13:34:56;;;;;;;1.70;0.80;;;7.60;99.90;;;;;;5143077;27;20222;-89
2021/05/18 13:37:27;;;;;;;3.73;0.80;;;7.70;99.90;;;;;;5154457;27;20208;-88
2021/05/18 13:40:10;;;;;;;4.70;0.80;;;7.70;99.90;;;;;;5147751;27;20206;-90
2021/05/18 13:42:43;;;;;;;4.30;1.30;;;7.70;99.90;;;;;;5121139;28;20206;-89
2021/05/18 13:45:14;;;;;;;4.77;0.90;;;7.80;99.90;;;;;;5116834;28;20676;-89
2021/05/18 13:47:44;;;;;;;3.87;1.00;;;7.90;99.90;;;;;;5114956;28;20371;-89
2021/05/18 13:50:16;;;;;;;2.57;0.90;;;8.00;99.90;;;;;;5113792;28;20210;-89
2021/05/18 13:52:46;;;;;;;2.27;0.90;;;8.10;99.90;;;;;;5114586;28;20211;-89
2021/05/18 13:55:17;;;;;;;1.37;0.87;;;8.10;99.90;;;;;;5114623;28;20203;-88
2021/05/18 13:57:50;;;;;;;2.93;1.27;;;8.10;99.90;;;;;;5097486;28;20306;-89
2021/05/18 14:00:21;;;;;;;3.57;0.90;;;8.30;99.90;;;;;;5113639;28;20214;-88
2021/05/18 14:02:52;;;;;;;2.20;1.27;;;8.30;99.90;;;;;;5114494;28;20206;-88
2021/05/18 14:05:24;;;;;;;2.93;1.10;;;8.30;99.90;;;;;;5114822;28;20255;-88
2021/05/18 14:08:34;;;;;;;3.60;1.10;;;8.20;99.90;;;;;;5114580;28;20218;-88
2021/05/18 14:11:07;;;;;;;2.50;1.00;;;8.40;99.90;;;;;;5113947;28;20852;-88
2021/05/18 14:13:41;;;;;;;0.80;0.80;;;8.30;99.90;;;;;;5096790;28;20202;-87
2021/05/18 14:16:14;;;;;;;3.03;1.07;;;8.30;99.90;;;;;;5114571;28;20204;-89
2021/05/18 14:18:48;;;;;;;2.93;1.00;;;8.30;99.90;;;;;;5116220;28;20231;-88
2021/05/18 14:21:20;;;;;;;2.37;1.00;;;8.30;99.90;;;;;;5114929;28;20199;-88
2021/05/18 14:23:58;;;;;;;5.57;1.00;;;8.40;99.90;;;;;;5116018;28;20653;-88
2021/05/18 14:26:30;;;;;;;3.33;1.10;;;8.40;99.90;;;;;;5117579;28;20217;-88
2021/05/18 14:29:04;;;;;;;2.97;1.27;;;8.50;99.90;;;;;;5117850;28;20211;-88
2021/05/18 14:31:34;;;;;;;2.63;1.03;;;8.50;99.90;;;;;;5116518;28;20275;-88
2021/05/18 14:34:08;;;;;;;2.50;1.10;;;8.50;99.90;;;;;;5118882;28;20285;-89
2021/05/18 14:36:39;;;;;;;3.13;0.90;;;8.50;99.90;;;;;;5123289;28;20209;-89
2021/05/18 14:39:11;;;;;;;4.27;1.10;;;8.50;99.90;;;;;;5134409;28;20260;-89
2021/05/18 14:44:32;;;;;;;2.60;0.93;;;8.60;99.90;;;;;;5125288;28;20294;-89
2021/05/18 14:47:06;;;;;;;3.90;1.30;;;8.70;99.90;;;;;;5140062;28;20202;-88
2021/05/18 14:55:16;;;;;;;8.10;1.23;;;8.80;99.90;;;;;;5139371;28;20303;-89
2021/05/18 14:57:47;;;;;;;3.73;1.47;;;8.80;99.90;;;;;;5123716;28;20297;-89
2021/05/18 15:00:21;;;;;;;5.20;1.20;;;8.70;99.90;;;;;;5119417;28;20239;-89
2021/05/18 15:02:52;;;;;;;3.70;1.00;;;8.80;99.90;;;;;;5120621;28;20541;-89
2021/05/18 15:05:25;;;;;;;4.60;1.13;;;9.00;99.90;;;;;;5121024;28;20213;-90
2021/05/18 15:07:56;;;;;;;3.93;1.00;;;9.20;99.90;;;;;;5117916;28;20210;-88
2021/05/18 15:10:28;;;;;;;5.73;1.57;;;9.20;99.90;;;;;;5118177;28;20285;-88
2021/05/18 15:13:00;;;;;;;5.47;1.30;;;9.10;99.90;;;;;;5117603;28;20285;-88
2021/05/18 15:15:32;;;;;;;3.73;1.37;;;9.20;99.90;;;;;;5117414;28;20232;-88
2021/05/18 15:18:03;;;;;;;3.43;1.00;;;9.20;99.90;;;;;;5117581;28;20581;-88
2021/05/18 15:20:34;;;;;;;4.70;1.60;;;9.30;99.90;;;;;;5117233;28;20204;-88
2021/05/18 15:23:05;;;;;;;7.03;1.33;;;9.30;99.90;;;;;;5117298;28;20248;-88
2021/05/18 15:25:36;;;;;;;2.57;1.13;;;9.20;99.90;;;;;;5117039;28;20287;-88
2021/05/18 15:28:08;;;;;;;4.87;1.30;;;9.30;99.90;;;;;;5160479;27;20212;-88
2021/05/18 15:30:40;;;;;;;5.07;1.00;;;9.40;99.90;;;;;;5157294;27;20228;-89
2021/05/18 15:33:12;;;;;;;4.20;1.40;;;9.40;99.90;;;;;;5140090;27;20201;-89
2021/05/18 15:35:43;;;;;;;2.67;1.13;;;9.50;99.90;;;;;;5158498;27;20213;-89
2021/05/18 15:38:14;;;;;;;2.80;1.20;;;9.60;99.90;;;;;;5159399;27;20220;-89
2021/05/18 15:40:46;;;;;;;4.50;1.20;;;9.70;99.90;;;;;;5157889;27;20205;-89
2021/05/18 15:43:17;;;;;;;4.30;1.20;;;9.80;99.90;;;;;;5158776;27;20247;-89
2021/05/18 15:45:49;;;;;;;3.20;1.10;;;9.90;99.90;;;;;;5158973;27;20195;-88
2021/05/18 15:48:20;;;;;;;2.63;0.90;;;10.10;99.90;;;;;;5140978;27;20243;-89
2021/05/18 15:50:51;;;;;;;1.77;0.90;;;9.90;99.90;;;;;;5158423;27;20231;-88
2021/05/18 15:53:22;;;;;;;6.00;1.40;;;10.10;99.90;;;;;;5158410;27;20565;-89
2021/05/18 15:55:53;;;;;;;3.87;1.20;;;10.20;99.90;;;;;;5171730;27;20208;-88
2021/05/18 15:58:24;;;;;;;3.67;0.97;;;10.40;99.90;;;;;;5177184;27;20245;-88
2021/05/18 16:00:57;;;;;;;1.87;0.90;;;10.30;99.90;;;;;;5162924;27;20274;-88
2021/05/18 16:03:28;;;;;;;2.10;0.80;;;10.20;99.90;;;;;;5138993;27;20281;-89
2021/05/18 16:06:03;;;;;;;3.37;0.80;;;10.40;99.90;;;;;;5138436;27;20220;-87
2021/05/18 16:11:24;;;;;;;2.33;1.00;;;10.30;99.90;;;;;;5135970;27;20764;-89
2021/05/18 16:13:55;;;;;;;4.50;1.10;;;10.40;99.90;;;;;;5136959;27;20689;-89
2021/05/18 16:16:28;;;;;;;6.00;1.20;;;10.80;99.90;;;;;;5136578;27;20201;-88
2021/05/18 16:18:59;;;;;;;2.73;0.80;;;10.90;99.90;;;;;;5137316;27;20240;-88
2021/05/18 16:21:30;;;;;;;2.60;1.17;;;11.10;99.90;;;;;;5136356;27;20213;-88
2021/05/18 16:24:01;;;;;;;2.53;0.90;;;11.10;99.90;;;;;;5136334;27;20205;-88
2021/05/18 16:26:33;;;;;;;1.93;1.00;;;11.00;99.90;;;;;;5135658;27;20682;-88
2021/05/18 16:29:05;;;;;;;2.50;1.17;;;11.00;99.90;;;;;;5137222;27;20299;-86
2021/05/18 16:31:37;;;;;;;5.53;1.13;;;10.90;99.90;;;;;;5137799;27;20225;-88
2021/05/18 16:34:09;;;;;;;4.43;0.80;;;10.70;99.90;;;;;;5147284;27;20212;-87
2021/05/18 16:36:39;;;;;;;5.67;1.70;;;10.90;99.90;;;;;;5124487;27;20296;-88
2021/05/18 16:39:11;;;;;;;4.27;1.13;;;11.10;99.90;;;;;;5137155;27;20257;-89
2021/05/18 16:41:43;;;;;;;3.40;0.73;;;11.10;99.90;;;;;;5136598;27;20289;-89
2021/05/18 16:44:14;;;;;;;2.93;1.10;;;11.30;99.90;;;;;;5136743;27;20222;-89
2021/05/18 16:46:46;;;;;;;2.40;0.77;;;11.30;99.90;;;;;;5136037;27;20621;-89
2021/05/18 16:49:17;;;;;;;2.67;1.17;;;11.50;99.90;;;;;;5136395;27;20213;-88
2021/05/18 16:51:48;;;;;;;2.97;0.80;;;11.60;99.90;;;;;;5135055;27;20244;-89
2021/05/18 16:54:18;;;;;;;2.47;0.60;;;11.80;99.90;;;;;;5136136;27;20258;-89
2021/05/18 16:56:50;;;;;;;2.40;0.90;;;11.90;99.90;;;;;;5135966;27;20202;-88
2021/05/18 16:59:21;;;;;;;2.33;0.90;;;11.60;99.90;;;;;;5135578;27;20626;-88
2021/05/18 17:01:53;;;;;;;1.13;0.63;;;11.80;99.90;;;;;;5134612;27;20244;-88
2021/05/18 17:04:23;;;;;;;2.23;0.70;;;12.00;99.90;;;;;;5135398;27;20703;-87
2021/05/18 17:06:54;;;;;;;4.67;0.83;;;12.20;99.90;;;;;;5135455;27;20274;-88
2021/05/18 17:09:26;;;;;;;3.17;0.90;;;11.90;99.90;;;;;;5137062;27;20210;-87
2021/05/18 17:11:57;;;;;;;1.40;0.70;;;12.00;99.90;;;;;;5134158;27;20338;-89
2021/05/18 17:14:28;;;;;;;1.30;0.77;;;12.20;99.90;;;;;;5135686;27;20213;-88
2021/05/18 17:17:00;;;;;;;3.17;0.97;;;12.20;99.90;;;;;;5136094;27;20678;-88
2021/05/18 17:19:30;;;;;;;1.43;0.90;;;12.20;99.90;;;;;;5135178;27;20250;-89
2021/05/18 17:22:01;;;;;;;2.10;0.90;;;12.00;99.90;;;;;;5108376;28;20621;-89
2021/05/18 17:24:32;;;;;;;2.80;0.90;;;12.10;99.90;;;;;;5127539;27;20210;-88
2021/05/18 17:27:03;;;;;;;2.30;0.87;;;12.00;99.90;;;;;;5136594;27;20544;-88
2021/05/18 17:29:34;;;;;;;1.67;0.70;;;12.00;99.90;;;;;;5135198;27;20285;-88
2021/05/18 17:32:10;;;;;;;3.10;0.97;;;12.20;99.90;;;;;;5134403;27;20225;-89
2021/05/18 17:34:42;;;;;;;1.77;0.70;;;12.70;99.90;;;;;;5136480;27;20208;-89
2021/05/18 17:37:12;;;;;;;2.50;0.73;;;13.00;99.90;;;;;;5135705;27;20663;-88
2021/05/18 17:39:43;;;;;;;3.57;0.90;;;12.50;99.90;;;;;;5135157;27;20228;-88
2021/05/18 17:42:16;;;;;;;3.53;0.70;;;12.50;99.90;;;;;;5134559;27;20205;-89
2021/05/18 17:44:46;;;;;;;2.00;0.70;;;12.60;99.90;;;;;;5135655;27;20635;-89
2021/05/18 17:47:18;;;;;;;2.83;0.90;;;12.90;99.90;;;;;;5136382;27;20600;-89
2021/05/18 17:49:49;;;;;;;1.00;0.60;;;12.70;99.90;;;;;;5135148;28;20221;-89